sensor_id;sensor_type;location;lat;lon;timestamp;P1;durP1;ratioP1;P2;durP2;ratioP2
26484;SDS011;18083;50.560;7.262;2022-11-24T00:01:35;16.43;;;5.30;;
26484;SDS011;18083;50.560;7.262;2022-11-24T00:04:03;11.27;;;4.93;;
26484;SDS011;18083;50.560;7.262;2022-11-24T00:06:31;17.97;;;6.53;;
26484;SDS011;18083;50.560;7.262;2022-11-24T00:08:59;12.70;;;5.83;;
26484;SDS011;18083;50.560;7.262;2022-11-24T00:11:27;15.73;;;5.83;;
26484;SDS011;18083;50.560;7.262;2022-11-24T00:13:56;22.87;;;5.83;;
26484;SDS011;18083;50.560;7.262;2022-11-24T00:16:24;19.13;;;4.87;;
26484;SDS011;18083;50.560;7.262;2022-11-24T00:18:52;11.30;;;4.60;;
26484;SDS011;18083;50.560;7.262;2022-11-24T00:21:20;12.87;;;4.93;;
26484;SDS011;18083;50.560;7.262;2022-11-24T00:23:48;9.07;;;4.40;;
26484;SDS011;18083;50.560;7.262;2022-11-24T00:26:19;13.10;;;5.53;;
26484;SDS011;18083;50.560;7.262;2022-11-24T00:28:48;10.13;;;6.03;;
26484;SDS011;18083;50.560;7.262;2022-11-24T00:31:21;9.13;;;5.10;;
26484;SDS011;18083;50.560;7.262;2022-11-24T00:33:49;13.27;;;4.77;;
26484;SDS011;18083;50.560;7.262;2022-11-24T00:36:13;11.63;;;4.37;;
26484;SDS011;18083;50.560;7.262;2022-11-24T00:38:40;12.57;;;5.97;;
26484;SDS011;18083;50.560;7.262;2022-11-24T00:41:08;13.83;;;5.00;;
26484;SDS011;18083;50.560;7.262;2022-11-24T00:43:35;8.50;;;4.27;;
26484;SDS011;18083;50.560;7.262;2022-11-24T00:46:02;11.60;;;4.63;;
26484;SDS011;18083;50.560;7.262;2022-11-24T00:48:30;16.57;;;7.07;;
26484;SDS011;18083;50.560;7.262;2022-11-24T00:51:01;11.67;;;5.57;;
26484;SDS011;18083;50.560;7.262;2022-11-24T00:53:29;14.47;;;6.60;;
26484;SDS011;18083;50.560;7.262;2022-11-24T00:55:56;10.67;;;5.43;;
26484;SDS011;18083;50.560;7.262;2022-11-24T00:58:24;12.70;;;4.83;;
26484;SDS011;18083;50.560;7.262;2022-11-24T01:00:51;16.00;;;5.20;;
26484;SDS011;18083;50.560;7.262;2022-11-24T01:03:19;13.17;;;4.50;;
26484;SDS011;18083;50.560;7.262;2022-11-24T01:05:47;29.67;;;6.37;;
26484;SDS011;18083;50.560;7.262;2022-11-24T01:08:14;12.23;;;4.27;;
26484;SDS011;18083;50.560;7.262;2022-11-24T01:10:42;17.17;;;6.27;;
26484;SDS011;18083;50.560;7.262;2022-11-24T01:13:09;16.80;;;5.57;;
26484;SDS011;18083;50.560;7.262;2022-11-24T01:15:38;19.97;;;5.07;;
26484;SDS011;18083;50.560;7.262;2022-11-24T01:18:05;15.23;;;5.53;;
26484;SDS011;18083;50.560;7.262;2022-11-24T01:20:33;14.60;;;4.87;;
26484;SDS011;18083;50.560;7.262;2022-11-24T01:23:02;12.47;;;4.37;;
26484;SDS011;18083;50.560;7.262;2022-11-24T01:25:30;13.30;;;4.33;;
26484;SDS011;18083;50.560;7.262;2022-11-24T01:27:57;18.63;;;5.13;;
26484;SDS011;18083;50.560;7.262;2022-11-24T01:30:24;15.27;;;4.57;;
26484;SDS011;18083;50.560;7.262;2022-11-24T01:32:52;12.53;;;5.73;;
26484;SDS011;18083;50.560;7.262;2022-11-24T01:35:19;11.20;;;4.70;;
26484;SDS011;18083;50.560;7.262;2022-11-24T01:37:46;17.97;;;5.63;;
26484;SDS011;18083;50.560;7.262;2022-11-24T01:40:14;27.13;;;6.80;;
26484;SDS011;18083;50.560;7.262;2022-11-24T01:42:42;16.77;;;6.57;;
26484;SDS011;18083;50.560;7.262;2022-11-24T01:45:27;15.17;;;4.93;;
26484;SDS011;18083;50.560;7.262;2022-11-24T01:47:54;13.10;;;4.17;;
26484;SDS011;18083;50.560;7.262;2022-11-24T01:50:22;15.80;;;4.87;;
26484;SDS011;18083;50.560;7.262;2022-11-24T01:52:51;12.47;;;3.97;;
26484;SDS011;18083;50.560;7.262;2022-11-24T01:55:19;12.50;;;4.53;;
26484;SDS011;18083;50.560;7.262;2022-11-24T01:57:51;16.33;;;4.50;;
26484;SDS011;18083;50.560;7.262;2022-11-24T02:00:19;13.47;;;3.60;;
26484;SDS011;18083;50.560;7.262;2022-11-24T02:02:46;12.23;;;4.17;;
26484;SDS011;18083;50.560;7.262;2022-11-24T02:05:27;16.67;;;4.07;;
26484;SDS011;18083;50.560;7.262;2022-11-24T02:07:54;20.23;;;5.17;;
26484;SDS011;18083;50.560;7.262;2022-11-24T02:10:23;11.97;;;3.83;;
26484;SDS011;18083;50.560;7.262;2022-11-24T02:12:51;19.87;;;6.60;;
26484;SDS011;18083;50.560;7.262;2022-11-24T02:15:19;17.43;;;4.30;;
26484;SDS011;18083;50.560;7.262;2022-11-24T02:17:47;15.87;;;3.87;;
26484;SDS011;18083;50.560;7.262;2022-11-24T02:20:14;23.23;;;4.10;;
26484;SDS011;18083;50.560;7.262;2022-11-24T02:25:33;18.70;;;5.37;;
26484;SDS011;18083;50.560;7.262;2022-11-24T02:27:59;13.90;;;3.97;;
26484;SDS011;18083;50.560;7.262;2022-11-24T02:30:26;12.03;;;3.10;;
26484;SDS011;18083;50.560;7.262;2022-11-24T02:32:54;12.37;;;3.90;;
26484;SDS011;18083;50.560;7.262;2022-11-24T02:35:21;14.97;;;4.03;;
26484;SDS011;18083;50.560;7.262;2022-11-24T02:37:49;16.10;;;3.67;;
26484;SDS011;18083;50.560;7.262;2022-11-24T02:40:18;10.93;;;4.27;;
26484;SDS011;18083;50.560;7.262;2022-11-24T02:42:45;13.33;;;4.27;;
26484;SDS011;18083;50.560;7.262;2022-11-24T02:45:13;13.97;;;3.57;;
26484;SDS011;18083;50.560;7.262;2022-11-24T02:47:41;7.50;;;4.03;;
26484;SDS011;18083;50.560;7.262;2022-11-24T02:50:08;21.13;;;4.60;;
26484;SDS011;18083;50.560;7.262;2022-11-24T02:52:36;21.00;;;5.33;;
26484;SDS011;18083;50.560;7.262;2022-11-24T02:55:03;15.93;;;4.60;;
26484;SDS011;18083;50.560;7.262;2022-11-24T02:57:30;16.83;;;3.73;;
26484;SDS011;18083;50.560;7.262;2022-11-24T02:59:58;16.77;;;4.30;;
26484;SDS011;18083;50.560;7.262;2022-11-24T03:02:25;21.80;;;4.07;;
26484;SDS011;18083;50.560;7.262;2022-11-24T03:04:53;7.57;;;3.60;;
26484;SDS011;18083;50.560;7.262;2022-11-24T03:07:20;12.07;;;3.30;;
26484;SDS011;18083;50.560;7.262;2022-11-24T03:09:48;18.83;;;4.70;;
26484;SDS011;18083;50.560;7.262;2022-11-24T03:12:15;16.93;;;4.73;;
26484;SDS011;18083;50.560;7.262;2022-11-24T03:14:43;12.00;;;4.90;;
26484;SDS011;18083;50.560;7.262;2022-11-24T03:17:10;15.67;;;3.60;;
26484;SDS011;18083;50.560;7.262;2022-11-24T03:19:38;9.07;;;3.70;;
26484;SDS011;18083;50.560;7.262;2022-11-24T03:22:05;8.93;;;2.77;;
26484;SDS011;18083;50.560;7.262;2022-11-24T03:24:32;11.40;;;3.23;;
26484;SDS011;18083;50.560;7.262;2022-11-24T03:27:00;10.13;;;3.40;;
26484;SDS011;18083;50.560;7.262;2022-11-24T03:29:27;11.90;;;3.30;;
26484;SDS011;18083;50.560;7.262;2022-11-24T03:31:54;13.03;;;4.43;;
26484;SDS011;18083;50.560;7.262;2022-11-24T03:34:22;17.23;;;3.40;;
26484;SDS011;18083;50.560;7.262;2022-11-24T03:36:49;13.20;;;3.93;;
26484;SDS011;18083;50.560;7.262;2022-11-24T03:39:16;11.77;;;3.33;;
26484;SDS011;18083;50.560;7.262;2022-11-24T03:41:44;11.47;;;4.67;;
26484;SDS011;18083;50.560;7.262;2022-11-24T03:44:11;10.67;;;4.47;;
26484;SDS011;18083;50.560;7.262;2022-11-24T03:46:39;12.90;;;3.63;;
26484;SDS011;18083;50.560;7.262;2022-11-24T03:49:06;16.83;;;4.33;;
26484;SDS011;18083;50.560;7.262;2022-11-24T03:51:33;18.30;;;5.70;;
26484;SDS011;18083;50.560;7.262;2022-11-24T03:54:00;10.00;;;3.90;;
26484;SDS011;18083;50.560;7.262;2022-11-24T03:56:28;17.30;;;4.07;;
26484;SDS011;18083;50.560;7.262;2022-11-24T03:58:55;12.60;;;4.07;;
26484;SDS011;18083;50.560;7.262;2022-11-24T04:01:23;15.17;;;3.70;;
26484;SDS011;18083;50.560;7.262;2022-11-24T04:03:50;15.70;;;3.40;;
26484;SDS011;18083;50.560;7.262;2022-11-24T04:06:17;17.37;;;3.87;;
26484;SDS011;18083;50.560;7.262;2022-11-24T04:08:45;12.83;;;4.30;;
26484;SDS011;18083;50.560;7.262;2022-11-24T04:11:12;11.20;;;3.83;;
26484;SDS011;18083;50.560;7.262;2022-11-24T04:13:41;11.33;;;3.80;;
26484;SDS011;18083;50.560;7.262;2022-11-24T04:16:08;15.33;;;4.03;;
26484;SDS011;18083;50.560;7.262;2022-11-24T04:18:36;23.03;;;4.50;;
26484;SDS011;18083;50.560;7.262;2022-11-24T04:21:03;18.90;;;4.17;;
26484;SDS011;18083;50.560;7.262;2022-11-24T04:23:30;15.30;;;4.17;;
26484;SDS011;18083;50.560;7.262;2022-11-24T04:25:58;17.53;;;4.07;;
26484;SDS011;18083;50.560;7.262;2022-11-24T04:28:25;14.63;;;4.60;;
26484;SDS011;18083;50.560;7.262;2022-11-24T04:30:53;39.97;;;6.97;;
26484;SDS011;18083;50.560;7.262;2022-11-24T04:33:20;20.43;;;5.00;;
26484;SDS011;18083;50.560;7.262;2022-11-24T04:35:47;17.10;;;3.83;;
26484;SDS011;18083;50.560;7.262;2022-11-24T04:38:14;13.57;;;4.13;;
26484;SDS011;18083;50.560;7.262;2022-11-24T04:40:42;10.97;;;3.83;;
26484;SDS011;18083;50.560;7.262;2022-11-24T04:43:09;12.53;;;3.47;;
26484;SDS011;18083;50.560;7.262;2022-11-24T04:45:37;9.27;;;2.87;;
26484;SDS011;18083;50.560;7.262;2022-11-24T04:48:04;10.00;;;4.07;;
26484;SDS011;18083;50.560;7.262;2022-11-24T04:50:32;13.87;;;4.57;;
26484;SDS011;18083;50.560;7.262;2022-11-24T04:52:59;18.87;;;3.93;;
26484;SDS011;18083;50.560;7.262;2022-11-24T04:55:26;10.47;;;3.80;;
26484;SDS011;18083;50.560;7.262;2022-11-24T04:57:54;14.07;;;3.33;;
26484;SDS011;18083;50.560;7.262;2022-11-24T05:00:21;7.87;;;3.40;;
26484;SDS011;18083;50.560;7.262;2022-11-24T05:02:48;17.03;;;4.23;;
26484;SDS011;18083;50.560;7.262;2022-11-24T05:05:16;13.13;;;3.70;;
26484;SDS011;18083;50.560;7.262;2022-11-24T05:07:43;13.80;;;4.20;;
26484;SDS011;18083;50.560;7.262;2022-11-24T05:10:11;16.50;;;5.40;;
26484;SDS011;18083;50.560;7.262;2022-11-24T05:12:56;11.80;;;4.53;;
26484;SDS011;18083;50.560;7.262;2022-11-24T05:15:24;12.07;;;4.10;;
26484;SDS011;18083;50.560;7.262;2022-11-24T05:17:52;11.17;;;5.37;;
26484;SDS011;18083;50.560;7.262;2022-11-24T05:20:19;8.77;;;3.83;;
26484;SDS011;18083;50.560;7.262;2022-11-24T05:22:47;14.13;;;4.23;;
26484;SDS011;18083;50.560;7.262;2022-11-24T05:25:14;15.30;;;3.63;;
26484;SDS011;18083;50.560;7.262;2022-11-24T05:27:41;15.27;;;3.90;;
26484;SDS011;18083;50.560;7.262;2022-11-24T05:30:09;14.20;;;4.23;;
26484;SDS011;18083;50.560;7.262;2022-11-24T05:32:36;13.80;;;5.80;;
26484;SDS011;18083;50.560;7.262;2022-11-24T05:35:04;30.83;;;6.53;;
26484;SDS011;18083;50.560;7.262;2022-11-24T05:37:31;23.70;;;5.33;;
26484;SDS011;18083;50.560;7.262;2022-11-24T05:39:59;12.83;;;4.90;;
26484;SDS011;18083;50.560;7.262;2022-11-24T05:42:26;30.90;;;7.00;;
26484;SDS011;18083;50.560;7.262;2022-11-24T05:45:06;14.80;;;4.67;;
26484;SDS011;18083;50.560;7.262;2022-11-24T05:47:34;17.60;;;5.43;;
26484;SDS011;18083;50.560;7.262;2022-11-24T05:50:02;11.97;;;3.93;;
26484;SDS011;18083;50.560;7.262;2022-11-24T05:52:29;9.73;;;3.93;;
26484;SDS011;18083;50.560;7.262;2022-11-24T05:54:57;21.60;;;7.03;;
26484;SDS011;18083;50.560;7.262;2022-11-24T05:57:24;10.33;;;3.77;;
26484;SDS011;18083;50.560;7.262;2022-11-24T05:59:51;18.73;;;5.30;;
26484;SDS011;18083;50.560;7.262;2022-11-24T06:02:19;23.53;;;5.17;;
26484;SDS011;18083;50.560;7.262;2022-11-24T06:04:46;24.37;;;5.00;;
26484;SDS011;18083;50.560;7.262;2022-11-24T06:07:14;9.73;;;4.60;;
26484;SDS011;18083;50.560;7.262;2022-11-24T06:09:41;11.13;;;3.43;;
26484;SDS011;18083;50.560;7.262;2022-11-24T06:12:09;15.40;;;4.07;;
26484;SDS011;18083;50.560;7.262;2022-11-24T06:14:37;15.47;;;5.63;;
26484;SDS011;18083;50.560;7.262;2022-11-24T06:17:05;14.37;;;4.43;;
26484;SDS011;18083;50.560;7.262;2022-11-24T06:19:32;18.70;;;4.60;;
26484;SDS011;18083;50.560;7.262;2022-11-24T06:22:00;17.93;;;4.17;;
26484;SDS011;18083;50.560;7.262;2022-11-24T06:24:27;10.40;;;4.20;;
26484;SDS011;18083;50.560;7.262;2022-11-24T06:26:54;18.87;;;4.80;;
26484;SDS011;18083;50.560;7.262;2022-11-24T06:29:22;19.20;;;6.30;;
26484;SDS011;18083;50.560;7.262;2022-11-24T06:31:49;11.93;;;4.03;;
26484;SDS011;18083;50.560;7.262;2022-11-24T06:34:17;18.23;;;4.73;;
26484;SDS011;18083;50.560;7.262;2022-11-24T06:36:44;7.90;;;3.20;;
26484;SDS011;18083;50.560;7.262;2022-11-24T06:39:12;14.77;;;4.43;;
26484;SDS011;18083;50.560;7.262;2022-11-24T06:41:39;10.87;;;3.53;;
26484;SDS011;18083;50.560;7.262;2022-11-24T06:44:07;16.83;;;4.03;;
26484;SDS011;18083;50.560;7.262;2022-11-24T06:46:34;12.40;;;4.27;;
26484;SDS011;18083;50.560;7.262;2022-11-24T06:49:01;18.00;;;5.33;;
26484;SDS011;18083;50.560;7.262;2022-11-24T06:51:29;15.23;;;4.67;;
26484;SDS011;18083;50.560;7.262;2022-11-24T06:53:56;9.20;;;3.93;;
26484;SDS011;18083;50.560;7.262;2022-11-24T06:56:23;13.23;;;4.77;;
26484;SDS011;18083;50.560;7.262;2022-11-24T06:58:51;20.17;;;5.37;;
26484;SDS011;18083;50.560;7.262;2022-11-24T07:01:20;20.87;;;4.97;;
26484;SDS011;18083;50.560;7.262;2022-11-24T07:03:48;17.17;;;4.73;;
26484;SDS011;18083;50.560;7.262;2022-11-24T07:06:16;15.30;;;4.87;;
26484;SDS011;18083;50.560;7.262;2022-11-24T07:08:44;20.67;;;4.30;;
26484;SDS011;18083;50.560;7.262;2022-11-24T07:11:12;16.87;;;4.83;;
26484;SDS011;18083;50.560;7.262;2022-11-24T07:13:41;14.43;;;4.93;;
26484;SDS011;18083;50.560;7.262;2022-11-24T07:16:09;13.77;;;4.00;;
26484;SDS011;18083;50.560;7.262;2022-11-24T07:18:37;14.53;;;6.10;;
26484;SDS011;18083;50.560;7.262;2022-11-24T07:21:04;24.30;;;5.57;;
26484;SDS011;18083;50.560;7.262;2022-11-24T07:23:32;13.97;;;6.13;;
26484;SDS011;18083;50.560;7.262;2022-11-24T07:26:02;16.03;;;5.03;;
26484;SDS011;18083;50.560;7.262;2022-11-24T07:28:30;13.80;;;5.23;;
26484;SDS011;18083;50.560;7.262;2022-11-24T07:30:58;17.83;;;5.43;;
26484;SDS011;18083;50.560;7.262;2022-11-24T07:33:25;22.77;;;5.17;;
26484;SDS011;18083;50.560;7.262;2022-11-24T07:35:52;15.40;;;4.67;;
26484;SDS011;18083;50.560;7.262;2022-11-24T07:38:20;13.20;;;4.80;;
26484;SDS011;18083;50.560;7.262;2022-11-24T07:40:47;18.33;;;6.93;;
26484;SDS011;18083;50.560;7.262;2022-11-24T07:43:14;19.13;;;5.77;;
26484;SDS011;18083;50.560;7.262;2022-11-24T07:45:42;18.60;;;4.43;;
26484;SDS011;18083;50.560;7.262;2022-11-24T07:48:09;20.13;;;6.00;;
26484;SDS011;18083;50.560;7.262;2022-11-24T07:50:37;15.43;;;4.30;;
26484;SDS011;18083;50.560;7.262;2022-11-24T07:53:04;15.43;;;4.93;;
26484;SDS011;18083;50.560;7.262;2022-11-24T07:55:31;18.03;;;6.20;;
26484;SDS011;18083;50.560;7.262;2022-11-24T07:57:59;16.27;;;5.90;;
26484;SDS011;18083;50.560;7.262;2022-11-24T08:00:27;12.83;;;6.03;;
26484;SDS011;18083;50.560;7.262;2022-11-24T08:02:54;17.67;;;5.33;;
26484;SDS011;18083;50.560;7.262;2022-11-24T08:05:21;19.70;;;6.53;;
26484;SDS011;18083;50.560;7.262;2022-11-24T08:07:49;18.23;;;5.43;;
26484;SDS011;18083;50.560;7.262;2022-11-24T08:10:16;18.23;;;6.53;;
26484;SDS011;18083;50.560;7.262;2022-11-24T08:12:44;17.23;;;5.33;;
26484;SDS011;18083;50.560;7.262;2022-11-24T08:15:11;20.10;;;6.10;;
26484;SDS011;18083;50.560;7.262;2022-11-24T08:17:38;28.73;;;6.47;;
26484;SDS011;18083;50.560;7.262;2022-11-24T08:20:06;18.60;;;5.20;;
26484;SDS011;18083;50.560;7.262;2022-11-24T08:22:34;20.20;;;5.30;;
26484;SDS011;18083;50.560;7.262;2022-11-24T08:25:01;14.67;;;5.17;;
26484;SDS011;18083;50.560;7.262;2022-11-24T08:27:28;13.27;;;5.17;;
26484;SDS011;18083;50.560;7.262;2022-11-24T08:29:56;17.30;;;4.37;;
26484;SDS011;18083;50.560;7.262;2022-11-24T08:32:23;14.13;;;4.17;;
26484;SDS011;18083;50.560;7.262;2022-11-24T08:34:51;7.80;;;3.67;;
26484;SDS011;18083;50.560;7.262;2022-11-24T08:37:21;12.00;;;3.87;;
26484;SDS011;18083;50.560;7.262;2022-11-24T08:39:50;7.73;;;3.13;;
26484;SDS011;18083;50.560;7.262;2022-11-24T08:44:47;7.17;;;2.63;;
26484;SDS011;18083;50.560;7.262;2022-11-24T08:47:17;6.07;;;2.60;;
26484;SDS011;18083;50.560;7.262;2022-11-24T08:54:58;8.53;;;3.23;;
26484;SDS011;18083;50.560;7.262;2022-11-24T09:12:17;8.63;;;4.00;;
26484;SDS011;18083;50.560;7.262;2022-11-24T09:14:46;8.38;;;3.70;;
26484;SDS011;18083;50.560;7.262;2022-11-24T09:17:34;5.37;;;2.40;;
26484;SDS011;18083;50.560;7.262;2022-11-24T09:22:55;8.67;;;3.13;;
26484;SDS011;18083;50.560;7.262;2022-11-24T09:25:27;13.58;;;3.30;;
26484;SDS011;18083;50.560;7.262;2022-11-24T09:37:00;6.20;;;2.75;;
26484;SDS011;18083;50.560;7.262;2022-11-24T09:48:20;8.55;;;2.67;;
26484;SDS011;18083;50.560;7.262;2022-11-24T09:50:53;5.62;;;2.12;;
26484;SDS011;18083;50.560;7.262;2022-11-24T09:53:30;7.10;;;2.45;;
26484;SDS011;18083;50.560;7.262;2022-11-24T09:56:20;6.62;;;2.00;;
26484;SDS011;18083;50.560;7.262;2022-11-24T10:01:35;7.60;;;1.62;;
26484;SDS011;18083;50.560;7.262;2022-11-24T10:04:05;4.65;;;2.10;;
26484;SDS011;18083;50.560;7.262;2022-11-24T10:06:39;7.03;;;2.00;;
26484;SDS011;18083;50.560;7.262;2022-11-24T10:12:11;3.77;;;1.65;;
26484;SDS011;18083;50.560;7.262;2022-11-24T10:50:03;15.83;;;3.35;;
26484;SDS011;18083;50.560;7.262;2022-11-24T10:52:30;6.03;;;2.22;;
26484;SDS011;18083;50.560;7.262;2022-11-24T10:55:02;9.65;;;2.17;;
26484;SDS011;18083;50.560;7.262;2022-11-24T10:59:59;4.95;;;2.87;;
26484;SDS011;18083;50.560;7.262;2022-11-24T11:02:37;7.45;;;2.17;;
26484;SDS011;18083;50.560;7.262;2022-11-24T11:07:49;4.60;;;2.52;;
26484;SDS011;18083;50.560;7.262;2022-11-24T11:10:19;9.18;;;4.22;;
26484;SDS011;18083;50.560;7.262;2022-11-24T11:12:46;9.15;;;3.30;;
26484;SDS011;18083;50.560;7.262;2022-11-24T11:15:28;8.28;;;2.25;;
26484;SDS011;18083;50.560;7.262;2022-11-24T11:17:48;8.63;;;3.58;;
26484;SDS011;18083;50.560;7.262;2022-11-24T11:20:20;9.25;;;3.22;;
26484;SDS011;18083;50.560;7.262;2022-11-24T11:22:47;7.03;;;2.60;;
26484;SDS011;18083;50.560;7.262;2022-11-24T11:26:17;8.43;;;2.10;;
26484;SDS011;18083;50.560;7.262;2022-11-24T11:28:09;13.22;;;2.22;;
26484;SDS011;18083;50.560;7.262;2022-11-24T11:30:23;4.78;;;1.85;;
26484;SDS011;18083;50.560;7.262;2022-11-24T11:32:55;4.00;;;3.20;;
26484;SDS011;18083;50.560;7.262;2022-11-24T11:35:23;7.53;;;3.90;;
26484;SDS011;18083;50.560;7.262;2022-11-24T11:37:52;13.90;;;3.33;;
26484;SDS011;18083;50.560;7.262;2022-11-24T11:40:24;9.30;;;3.98;;
26484;SDS011;18083;50.560;7.262;2022-11-24T11:42:56;11.43;;;3.92;;
26484;SDS011;18083;50.560;7.262;2022-11-24T11:45:25;4.85;;;2.17;;
26484;SDS011;18083;50.560;7.262;2022-11-24T11:47:54;8.98;;;2.05;;
26484;SDS011;18083;50.560;7.262;2022-11-24T11:53:04;7.40;;;2.25;;
26484;SDS011;18083;50.560;7.262;2022-11-24T12:03:44;4.35;;;1.90;;
26484;SDS011;18083;50.560;7.262;2022-11-24T12:11:07;3.65;;;2.10;;
26484;SDS011;18083;50.560;7.262;2022-11-24T12:16:17;5.67;;;2.55;;
26484;SDS011;18083;50.560;7.262;2022-11-24T12:18:48;3.62;;;2.12;;
26484;SDS011;18083;50.560;7.262;2022-11-24T12:24:00;4.70;;;2.02;;
26484;SDS011;18083;50.560;7.262;2022-11-24T12:26:37;8.73;;;2.35;;
26484;SDS011;18083;50.560;7.262;2022-11-24T12:29:06;8.23;;;1.80;;
26484;SDS011;18083;50.560;7.262;2022-11-24T12:31:43;8.43;;;2.12;;
26484;SDS011;18083;50.560;7.262;2022-11-24T12:34:27;8.65;;;2.33;;
26484;SDS011;18083;50.560;7.262;2022-11-24T12:37:17;6.92;;;2.35;;
26484;SDS011;18083;50.560;7.262;2022-11-24T12:39:51;7.08;;;2.00;;
26484;SDS011;18083;50.560;7.262;2022-11-24T12:50:26;7.33;;;1.92;;
26484;SDS011;18083;50.560;7.262;2022-11-24T12:53:13;4.55;;;1.85;;
26484;SDS011;18083;50.560;7.262;2022-11-24T12:55:41;5.33;;;1.95;;
26484;SDS011;18083;50.560;7.262;2022-11-24T13:06:02;5.15;;;1.85;;
26484;SDS011;18083;50.560;7.262;2022-11-24T13:08:29;8.05;;;2.22;;
26484;SDS011;18083;50.560;7.262;2022-11-24T13:14:43;8.25;;;2.17;;
26484;SDS011;18083;50.560;7.262;2022-11-24T13:16:20;4.40;;;1.60;;
26484;SDS011;18083;50.560;7.262;2022-11-24T13:21:32;3.47;;;1.98;;
26484;SDS011;18083;50.560;7.262;2022-11-24T13:24:02;9.33;;;1.60;;
26484;SDS011;18083;50.560;7.262;2022-11-24T13:35:00;5.15;;;1.72;;
26484;SDS011;18083;50.560;7.262;2022-11-24T13:53:30;9.73;;;2.20;;
26484;SDS011;18083;50.560;7.262;2022-11-24T13:55:59;6.58;;;1.72;;
26484;SDS011;18083;50.560;7.262;2022-11-24T14:01:02;9.18;;;2.85;;
26484;SDS011;18083;50.560;7.262;2022-11-24T14:06:26;11.75;;;2.12;;
26484;SDS011;18083;50.560;7.262;2022-11-24T14:08:45;6.30;;;2.23;;
26484;SDS011;18083;50.560;7.262;2022-11-24T14:11:14;13.20;;;3.13;;
26484;SDS011;18083;50.560;7.262;2022-11-24T14:13:42;7.93;;;2.27;;
26484;SDS011;18083;50.560;7.262;2022-11-24T14:16:14;10.23;;;3.42;;
26484;SDS011;18083;50.560;7.262;2022-11-24T14:18:43;11.70;;;3.20;;
26484;SDS011;18083;50.560;7.262;2022-11-24T14:21:27;10.38;;;3.12;;
26484;SDS011;18083;50.560;7.262;2022-11-24T14:23:56;9.53;;;2.75;;
26484;SDS011;18083;50.560;7.262;2022-11-24T14:26:32;12.58;;;3.00;;
26484;SDS011;18083;50.560;7.262;2022-11-24T14:29:02;5.60;;;2.50;;
26484;SDS011;18083;50.560;7.262;2022-11-24T14:31:24;9.30;;;2.60;;
26484;SDS011;18083;50.560;7.262;2022-11-24T14:36:40;3.85;;;2.65;;
26484;SDS011;18083;50.560;7.262;2022-11-24T14:39:12;11.05;;;3.55;;
26484;SDS011;18083;50.560;7.262;2022-11-24T14:41:48;8.40;;;2.90;;
26484;SDS011;18083;50.560;7.262;2022-11-24T14:44:16;12.90;;;3.00;;
26484;SDS011;18083;50.560;7.262;2022-11-24T14:46:44;9.88;;;2.72;;
26484;SDS011;18083;50.560;7.262;2022-11-24T14:49:22;16.30;;;3.95;;
26484;SDS011;18083;50.560;7.262;2022-11-24T14:51:57;11.83;;;3.37;;
26484;SDS011;18083;50.560;7.262;2022-11-24T14:54:18;12.37;;;2.77;;
26484;SDS011;18083;50.560;7.262;2022-11-24T14:56:56;10.60;;;2.57;;
26484;SDS011;18083;50.560;7.262;2022-11-24T14:59:24;12.07;;;3.90;;
26484;SDS011;18083;50.560;7.262;2022-11-24T15:01:52;10.43;;;4.93;;
26484;SDS011;18083;50.560;7.262;2022-11-24T15:04:20;6.17;;;4.13;;
26484;SDS011;18083;50.560;7.262;2022-11-24T15:07:11;8.50;;;2.73;;
26484;SDS011;18083;50.560;7.262;2022-11-24T15:09:35;7.40;;;3.07;;
26484;SDS011;18083;50.560;7.262;2022-11-24T15:12:04;11.27;;;3.40;;
26484;SDS011;18083;50.560;7.262;2022-11-24T15:14:46;9.93;;;2.87;;
26484;SDS011;18083;50.560;7.262;2022-11-24T15:17:04;14.17;;;3.23;;
26484;SDS011;18083;50.560;7.262;2022-11-24T15:19:32;17.63;;;3.27;;
26484;SDS011;18083;50.560;7.262;2022-11-24T15:22:21;12.10;;;2.43;;
26484;SDS011;18083;50.560;7.262;2022-11-24T15:24:29;10.93;;;3.27;;
26484;SDS011;18083;50.560;7.262;2022-11-24T15:26:59;6.17;;;2.33;;
26484;SDS011;18083;50.560;7.262;2022-11-24T15:29:26;9.43;;;4.67;;
26484;SDS011;18083;50.560;7.262;2022-11-24T15:31:54;6.93;;;2.97;;
26484;SDS011;18083;50.560;7.262;2022-11-24T15:34:21;8.33;;;2.93;;
26484;SDS011;18083;50.560;7.262;2022-11-24T15:36:48;7.30;;;2.90;;
26484;SDS011;18083;50.560;7.262;2022-11-24T15:39:16;8.07;;;3.33;;
26484;SDS011;18083;50.560;7.262;2022-11-24T15:41:43;7.73;;;3.30;;
26484;SDS011;18083;50.560;7.262;2022-11-24T15:44:10;14.97;;;5.00;;
26484;SDS011;18083;50.560;7.262;2022-11-24T15:46:38;13.77;;;4.87;;
26484;SDS011;18083;50.560;7.262;2022-11-24T15:49:05;11.33;;;4.03;;
26484;SDS011;18083;50.560;7.262;2022-11-24T15:51:32;7.07;;;4.07;;
26484;SDS011;18083;50.560;7.262;2022-11-24T15:54:01;12.47;;;3.90;;
26484;SDS011;18083;50.560;7.262;2022-11-24T15:56:32;12.50;;;5.03;;
26484;SDS011;18083;50.560;7.262;2022-11-24T15:59:00;13.70;;;2.90;;
26484;SDS011;18083;50.560;7.262;2022-11-24T16:01:31;10.17;;;3.47;;
26484;SDS011;18083;50.560;7.262;2022-11-24T16:03:59;12.90;;;3.90;;
26484;SDS011;18083;50.560;7.262;2022-11-24T16:06:26;8.37;;;3.40;;
26484;SDS011;18083;50.560;7.262;2022-11-24T16:08:54;5.43;;;3.23;;
26484;SDS011;18083;50.560;7.262;2022-11-24T16:11:21;7.90;;;3.40;;
26484;SDS011;18083;50.560;7.262;2022-11-24T16:13:49;13.70;;;3.67;;
26484;SDS011;18083;50.560;7.262;2022-11-24T16:16:16;14.23;;;3.87;;
26484;SDS011;18083;50.560;7.262;2022-11-24T16:18:44;8.77;;;4.33;;
26484;SDS011;18083;50.560;7.262;2022-11-24T16:21:11;15.70;;;5.20;;
26484;SDS011;18083;50.560;7.262;2022-11-24T16:23:38;20.63;;;6.63;;
26484;SDS011;18083;50.560;7.262;2022-11-24T16:26:06;14.83;;;4.13;;
26484;SDS011;18083;50.560;7.262;2022-11-24T16:28:33;9.60;;;3.43;;
26484;SDS011;18083;50.560;7.262;2022-11-24T16:31:01;6.30;;;3.17;;
26484;SDS011;18083;50.560;7.262;2022-11-24T16:33:28;8.30;;;3.43;;
26484;SDS011;18083;50.560;7.262;2022-11-24T16:35:56;9.50;;;3.20;;
26484;SDS011;18083;50.560;7.262;2022-11-24T16:38:23;12.10;;;3.53;;
26484;SDS011;18083;50.560;7.262;2022-11-24T16:40:51;14.33;;;5.13;;
26484;SDS011;18083;50.560;7.262;2022-11-24T16:43:19;18.97;;;8.10;;
26484;SDS011;18083;50.560;7.262;2022-11-24T16:45:57;14.20;;;6.40;;
26484;SDS011;18083;50.560;7.262;2022-11-24T16:48:18;13.93;;;5.70;;
26484;SDS011;18083;50.560;7.262;2022-11-24T16:50:45;15.00;;;6.33;;
26484;SDS011;18083;50.560;7.262;2022-11-24T16:53:13;19.47;;;6.57;;
26484;SDS011;18083;50.560;7.262;2022-11-24T16:55:40;12.37;;;5.53;;
26484;SDS011;18083;50.560;7.262;2022-11-24T16:58:07;18.33;;;5.33;;
26484;SDS011;18083;50.560;7.262;2022-11-24T17:00:35;14.93;;;4.00;;
26484;SDS011;18083;50.560;7.262;2022-11-24T17:03:02;15.80;;;4.70;;
26484;SDS011;18083;50.560;7.262;2022-11-24T17:05:29;14.50;;;3.67;;
26484;SDS011;18083;50.560;7.262;2022-11-24T17:07:57;12.67;;;4.17;;
26484;SDS011;18083;50.560;7.262;2022-11-24T17:10:24;18.77;;;5.20;;
26484;SDS011;18083;50.560;7.262;2022-11-24T17:12:51;7.77;;;3.47;;
26484;SDS011;18083;50.560;7.262;2022-11-24T17:15:19;14.47;;;3.87;;
26484;SDS011;18083;50.560;7.262;2022-11-24T17:17:46;14.50;;;4.70;;
26484;SDS011;18083;50.560;7.262;2022-11-24T17:20:13;10.67;;;3.73;;
26484;SDS011;18083;50.560;7.262;2022-11-24T17:22:41;11.80;;;4.03;;
26484;SDS011;18083;50.560;7.262;2022-11-24T17:25:08;8.97;;;4.53;;
26484;SDS011;18083;50.560;7.262;2022-11-24T17:27:36;12.37;;;4.33;;
26484;SDS011;18083;50.560;7.262;2022-11-24T17:30:03;8.20;;;4.27;;
26484;SDS011;18083;50.560;7.262;2022-11-24T17:32:31;9.83;;;4.17;;
26484;SDS011;18083;50.560;7.262;2022-11-24T17:34:58;12.57;;;5.57;;